Flight Number: EUR2034 Duration: 0:50
Departure: Vienna Schwechat (LOWW) at 07:00 Distance: 192 Nm
Arrival: Munich Int'l (EDDM) at 07:50 Equipment: B737

Weather Information
Wien / Schwechat-Flughafen, Austria (LOWW) 48-07N 016-34E 190M Nov 18, 2017 - 06:50 AM EST / 2017.11.18 1150 UTC
Wind: from the WNW (300 degrees) at 12 MPH (10 KT):0
Visibility: greater than 7 mile(s):0
Sky conditions: mostly cloudy Temperature: 46 F (8 C) Dew Point: 35 F (2 C) Relative Humidity: 65% Pressure (altimeter): 30.09 in. Hg (1019 hPa)
ob: LOWW 181150Z 30010KT 9999 FEW022 BKN075 08/02 Q1019 NOSIG cycle: 12
Sunrise: 06:09 Sunset: 15:08 (UTC)

Munchen, Germany (EDDM) 48-21N 011-47E Nov 18, 2017 - 06:50 AM EST / 2017.11.18 1150 UTC
Wind: from the W (260 degrees) at 8 MPH (7 KT):0
Visibility: 4 mile(s):0
Sky conditions: mostly cloudy Temperature: 39 F (4 C) Dew Point: 35 F (2 C) Relative Humidity: 86% Pressure (altimeter): 30.15 in. Hg (1021 hPa)
ob: EDDM 181150Z 26007KT 8000 BKN007 BKN030 04/02 Q1021 BECMG BKN015 cycle: 12
Sunrise: 06:29 Sunset: 15:26 (UTC)

TAF:2017/11/18 12:27 TAF EDDM 181100Z 1812/1918 24010KT 8000 SCT006 BKN010 PROB30 TEMPO 1812/1813 BKN006 BECMG 1813/1814 BKN015 TEMPO 1902/1908 4000 RASN BKN010 BECMG 1906/1908 26015G25KT TEMPO 1908/1912 2500 SHSN BKN012TCU BECMG 1916/1918 26012KT

Previous Pireps for this route
Date Aircraft Flight time Fuel used Landing rate On time
2013-04-01B737150000No
2013-07-06B73700.575700-422No
2013-07-06B73701.008599-817No
2013-07-21B7370.5000No
2013-08-15B73701.016744-288No
2013-10-20B7371.0092540No
2014-03-31B73701.199380-574No
2014-04-03B73700.588004-338Charter
2014-06-28B73700.52-12-337No
2014-06-28B7370.5913800No
2015-01-13B73701.075609-153Yes
2015-03-12B73700.494943-86Yes
2015-03-28B73700.494149-273Yes
2015-04-04B73700.484345-256Yes
2015-04-05B73701.088560-479Yes
2015-04-06B73700.503379-138Yes
2015-06-23B7370.4649900Yes
2015-07-12B7370.5557050Yes
(pireps marked green are flown by you)

Route map